Time,TemperatureF,DewpointF,PressureIn,WindDirection,WindDirectionDegrees,WindSpeedMPH,WindSpeedGustMPH,Humidity,HourlyPrecipIn,Conditions,Clouds,dailyrainin,SolarRadiationWatts/m^2,SoftwareType,DateUTC
2013-08-07 00:22:00,45.0,41.0,-100.00,South,187,0.0,4.0,85,0.00,,,0.00,0.000000,,2013-08-07 08:22:00,
2013-08-07 00:32:00,45.0,41.0,-100.00,South,187,0.0,4.0,85,0.00,,,0.00,0.000000,,2013-08-07 08:32:00,
2013-08-07 00:44:00,45.0,41.0,-100.00,South,187,0.0,4.0,85,0.00,,,0.00,0.000000,,2013-08-07 08:44:00,
2013-08-07 00:52:00,45.0,41.0,-100.00,South,187,0.0,4.0,85,0.00,,,0.00,0.000000,,2013-08-07 08:52:00,
2013-08-07 01:43:00,41.0,38.0,-100.00,South,177,0.0,2.0,88,0.00,,,0.00,0.000000,,2013-08-07 09:43:00,
2013-08-07 01:54:00,41.0,38.0,-100.00,South,177,0.0,2.0,88,0.00,,,0.00,0.000000,,2013-08-07 09:54:00,
2013-08-07 02:32:00,37.0,34.0,-100.00,South,178,1.0,2.0,90,-99.99,,,0.00,0.000000,,2013-08-07 10:32:00,
2013-08-07 03:32:00,34.0,32.0,-100.00,South,169,0.0,2.0,92,-99.99,,,0.00,0.000000,,2013-08-07 11:32:00,
2013-08-07 03:43:00,34.0,32.0,-100.00,South,169,0.0,2.0,92,-99.99,,,0.00,0.000000,,2013-08-07 11:43:00,
2013-08-07 04:32:00,32.0,30.0,-100.00,South,176,0.0,3.0,93,-99.99,,,0.00,0.000000,,2013-08-07 12:32:00,
2013-08-07 05:44:00,30.0,28.0,-100.00,South,175,1.0,3.0,93,-99.99,,,0.00,0.000000,,2013-08-07 13:44:00,
2013-08-07 06:43:00,29.0,27.0,-100.00,SSW,197,0.0,3.0,94,-99.99,,,0.00,5.000000,,2013-08-07 14:43:00,
2013-08-07 07:22:00,32.0,30.0,-100.00,South,189,0.0,2.0,93,-99.99,,,0.00,43.000000,,2013-08-07 15:22:00,
2013-08-07 07:33:00,32.0,30.0,-100.00,South,189,0.0,2.0,93,-99.99,,,0.00,43.000000,,2013-08-07 15:33:00,
2013-08-07 07:43:00,32.0,30.0,-100.00,South,189,0.0,2.0,93,-99.99,,,0.00,43.000000,,2013-08-07 15:43:00,
2013-08-07 07:53:00,32.0,30.0,-100.00,South,189,0.0,2.0,93,-99.99,,,0.00,43.000000,,2013-08-07 15:53:00,
2013-08-07 08:33:00,50.0,42.0,-100.00,NE,44,1.0,3.0,73,-99.99,,,0.00,231.000000,,2013-08-07 16:33:00,
2013-08-07 08:43:00,50.0,42.0,-100.00,NE,44,1.0,3.0,73,-99.99,,,0.00,231.000000,,2013-08-07 16:43:00,
2013-08-07 08:52:00,50.0,42.0,-100.00,NE,44,1.0,3.0,73,-99.99,,,0.00,231.000000,,2013-08-07 16:52:00,
2013-08-07 09:22:00,56.0,43.0,-100.00,East,99,1.0,4.0,62,0.00,,,0.00,357.000000,,2013-08-07 17:22:00,
2013-08-07 09:33:00,56.0,43.0,-100.00,East,99,1.0,4.0,62,0.00,,,0.00,357.000000,,2013-08-07 17:33:00,
2013-08-07 09:43:00,56.0,43.0,-100.00,East,99,1.0,4.0,62,0.00,,,0.00,357.000000,,2013-08-07 17:43:00,
2013-08-07 09:52:00,56.0,43.0,-100.00,East,99,1.0,4.0,62,0.00,,,0.00,357.000000,,2013-08-07 17:52:00,
2013-08-07 10:22:00,61.0,44.0,-100.00,NE,54,1.0,4.0,54,0.00,,,0.00,495.000000,,2013-08-07 18:22:00,
2013-08-07 10:32:00,61.0,44.0,-100.00,NE,54,1.0,4.0,54,0.00,,,0.00,495.000000,,2013-08-07 18:32:00,
2013-08-07 10:43:00,61.0,44.0,-100.00,NE,54,1.0,4.0,54,0.00,,,0.00,495.000000,,2013-08-07 18:43:00,
2013-08-07 10:52:00,61.0,44.0,-100.00,NE,54,1.0,4.0,54,0.00,,,0.00,495.000000,,2013-08-07 18:52:00,
2013-08-07 11:44:00,63.0,45.0,-100.00,NNW,343,1.0,5.0,52,0.00,,,0.00,426.000000,,2013-08-07 19:44:00,
2013-08-07 11:52:00,63.0,45.0,-100.00,NNW,343,1.0,5.0,52,0.00,,,0.00,426.000000,,2013-08-07 19:52:00,
2013-08-07 12:43:00,65.0,44.0,-100.00,WNW,293,2.0,6.0,47,0.00,,,0.00,526.000000,,2013-08-07 20:43:00,
2013-08-07 12:52:00,65.0,44.0,-100.00,WNW,293,2.0,6.0,47,0.00,,,0.00,526.000000,,2013-08-07 20:52:00,
2013-08-07 13:43:00,67.0,45.0,-100.00,NW,304,2.0,5.0,45,0.00,,,0.00,418.000000,,2013-08-07 21:43:00,
2013-08-07 13:52:00,67.0,45.0,-100.00,NW,304,2.0,5.0,45,0.00,,,0.00,418.000000,,2013-08-07 21:52:00,
2013-08-07 14:22:00,70.0,44.0,-100.00,West,265,2.0,9.0,39,0.00,,,0.00,524.000000,,2013-08-07 22:22:00,
2013-08-07 14:32:00,70.0,44.0,-100.00,West,265,2.0,9.0,39,0.00,,,0.00,524.000000,,2013-08-07 22:32:00,
2013-08-07 14:43:00,70.0,44.0,-100.00,West,265,2.0,9.0,39,0.00,,,0.00,524.000000,,2013-08-07 22:43:00,
2013-08-07 14:52:00,70.0,44.0,-100.00,West,265,2.0,9.0,39,0.00,,,0.00,524.000000,,2013-08-07 22:52:00,
2013-08-07 15:43:00,70.0,43.0,-100.00,WSW,251,1.0,9.0,38,0.00,,,0.00,415.000000,,2013-08-07 23:43:00,
2013-08-07 15:52:00,70.0,43.0,-100.00,WSW,251,1.0,9.0,38,0.00,,,0.00,415.000000,,2013-08-07 23:52:00,
2013-08-07 16:42:00,70.0,44.0,-100.00,WSW,250,3.0,8.0,39,0.00,,,0.00,395.000000,,2013-08-08 00:42:00,
2013-08-07 16:52:00,70.0,44.0,-100.00,WSW,250,3.0,8.0,39,0.00,,,0.00,395.000000,,2013-08-08 00:52:00,
2013-08-07 17:22:00,69.0,42.0,-100.00,West,267,2.0,7.0,37,0.00,,,0.00,269.000000,,2013-08-08 01:22:00,
2013-08-07 17:32:00,69.0,42.0,-100.00,West,267,2.0,7.0,37,0.00,,,0.00,269.000000,,2013-08-08 01:32:00,
2013-08-07 17:43:00,69.0,42.0,-100.00,West,267,2.0,7.0,37,0.00,,,0.00,269.000000,,2013-08-08 01:43:00,
2013-08-07 17:52:00,69.0,42.0,-100.00,West,267,2.0,7.0,37,0.00,,,0.00,269.000000,,2013-08-08 01:52:00,
2013-08-07 18:32:00,70.0,44.0,-100.00,North,355,1.0,6.0,39,0.00,,,0.00,322.000000,,2013-08-08 02:32:00,
2013-08-07 18:42:00,70.0,44.0,-100.00,North,355,1.0,6.0,39,0.00,,,0.00,322.000000,,2013-08-08 02:42:00,
2013-08-07 18:52:00,70.0,44.0,-100.00,North,355,1.0,6.0,39,0.00,,,0.00,322.000000,,2013-08-08 02:52:00,
2013-08-07 19:22:00,70.0,45.0,-100.00,West,259,0.0,4.0,40,0.00,,,0.00,181.000000,,2013-08-08 03:22:00,
2013-08-07 19:32:00,70.0,45.0,-100.00,West,259,0.0,4.0,40,0.00,,,0.00,181.000000,,2013-08-08 03:32:00,
2013-08-07 19:43:00,70.0,45.0,-100.00,West,259,0.0,4.0,40,0.00,,,0.00,181.000000,,2013-08-08 03:43:00,
2013-08-07 19:52:00,70.0,45.0,-100.00,West,259,0.0,4.0,40,0.00,,,0.00,181.000000,,2013-08-08 03:52:00,
2013-08-07 20:22:00,66.0,40.0,-100.00,WNW,289,2.0,7.0,39,0.00,,,0.00,138.000000,,2013-08-08 04:22:00,
2013-08-07 20:32:00,66.0,40.0,-100.00,WNW,289,2.0,7.0,39,0.00,,,0.00,138.000000,,2013-08-08 04:32:00,
2013-08-07 20:43:00,66.0,40.0,-100.00,WNW,289,2.0,7.0,39,0.00,,,0.00,138.000000,,2013-08-08 04:43:00,
2013-08-07 20:53:00,66.0,40.0,-100.00,WNW,289,2.0,7.0,39,0.00,,,0.00,138.000000,,2013-08-08 04:53:00,
2013-08-07 21:22:00,61.0,43.0,-100.00,SW,236,1.0,6.0,51,0.00,,,0.00,43.000000,,2013-08-08 05:22:00,
2013-08-07 21:33:00,61.0,43.0,-100.00,SW,236,1.0,6.0,51,0.00,,,0.00,43.000000,,2013-08-08 05:33:00,
2013-08-07 21:43:00,61.0,43.0,-100.00,SW,236,1.0,6.0,51,0.00,,,0.00,43.000000,,2013-08-08 05:43:00,
2013-08-07 21:52:00,61.0,43.0,-100.00,SW,236,1.0,6.0,51,0.00,,,0.00,43.000000,,2013-08-08 05:52:00,
2013-08-07 22:32:00,54.0,44.0,-100.00,South,169,0.0,3.0,70,0.00,,,0.00,21.000000,,2013-08-08 06:32:00,
2013-08-07 22:43:00,54.0,44.0,-100.00,South,169,0.0,3.0,70,0.00,,,0.00,21.000000,,2013-08-08 06:43:00,
2013-08-07 22:52:00,54.0,44.0,-100.00,South,169,0.0,3.0,70,0.00,,,0.00,21.000000,,2013-08-08 06:52:00,
2013-08-07 23:43:00,48.0,42.0,-100.00,SSW,192,0.0,2.0,79,0.00,,,0.00,0.000000,,2013-08-08 07:43:00,
2013-08-07 23:53:00,48.0,42.0,-100.00,SSW,192,0.0,2.0,79,0.00,,,0.00,0.000000,,2013-08-08 07:53:00,